Terminal Aerodrome Forecast
Issued by NWS

Home | Current Version | Previous Version | Text Only | Print | Product List | Glossary On
Versions: 1 2 3 4 5 6 7 8 9 10 11 12 13 14 15 16
000
FTUS41 KBGM 242324
TAFITH
TAF
KITH 242324Z 2500/2524 16011KT P6SM SKC
     FM250300 17007KT P6SM FEW200 WS020/21040KT
     FM251000 18009KT P6SM BKN250
     FM251500 21011G16KT P6SM BKN035
     FM252000 27008KT P6SM -SHRA OVC030=

USA.gov is the U.S. government's official web portal to all federal, state and local government web resources and services.